createdAt,value
2018-12-30T00:02:24.165Z,2.18
2018-12-30T00:04:58.137Z,2.20
2018-12-30T00:07:32.234Z,2.27
2018-12-30T00:10:05.816Z,2.28
2018-12-30T00:12:39.071Z,2.21
2018-12-30T00:15:12.590Z,2.25
2018-12-30T00:17:46.389Z,2.01
2018-12-30T00:20:17.690Z,2.21
2018-12-30T00:22:50.847Z,2.26
2018-12-30T00:25:25.452Z,2.19
2018-12-30T00:27:57.687Z,2.29
2018-12-30T00:30:31.392Z,2.25
2018-12-30T00:33:05.386Z,2.23
2018-12-30T00:35:38.388Z,2.21
2018-12-30T00:38:12.477Z,2.24
2018-12-30T00:40:46.027Z,2.23
2018-12-30T00:43:17.416Z,2.21
2018-12-30T00:45:50.464Z,2.30
2018-12-30T00:48:24.355Z,2.29
2018-12-30T00:50:57.320Z,2.32
2018-12-30T00:53:32.606Z,2.38
2018-12-30T00:56:05.442Z,2.41
2018-12-30T00:58:40.114Z,2.55
2018-12-30T01:01:13.490Z,2.59
2018-12-30T01:03:47.150Z,2.55
2018-12-30T01:06:18.470Z,2.61
2018-12-30T01:08:51.454Z,2.68
2018-12-30T01:11:24.514Z,2.62
2018-12-30T01:13:55.813Z,2.56
2018-12-30T01:16:30.473Z,2.50
2018-12-30T01:19:02.447Z,2.51
2018-12-30T01:21:36.637Z,2.44
2018-12-30T01:24:08.509Z,2.42
2018-12-30T01:26:40.571Z,2.39
2018-12-30T01:29:13.074Z,2.38
2018-12-30T01:31:44.601Z,2.35
2018-12-30T01:34:17.633Z,2.38
2018-12-30T01:36:53.237Z,2.44
2018-12-30T01:39:24.539Z,2.47
2018-12-30T01:41:56.554Z,2.36
2018-12-30T01:44:27.845Z,2.30
2018-12-30T01:47:01.696Z,2.16
2018-12-30T01:49:34.695Z,2.00
2018-12-30T01:52:05.949Z,2.00
2018-12-30T01:54:38.720Z,1.96
2018-12-30T01:57:12.761Z,1.98
2018-12-30T01:59:46.840Z,1.84
2018-12-30T02:02:18.279Z,1.90
2018-12-30T02:04:50.766Z,1.78
2018-12-30T02:07:24.797Z,1.68
2018-12-30T02:09:56.226Z,1.84
2018-12-30T02:12:29.817Z,1.78
2018-12-30T02:15:02.824Z,1.77
2018-12-30T02:17:36.791Z,1.81
2018-12-30T02:20:09.878Z,1.87
2018-12-30T02:22:45.481Z,1.76
2018-12-30T02:25:16.744Z,2.02
2018-12-30T02:27:50.809Z,1.87
2018-12-30T02:30:24.040Z,1.78
2018-12-30T02:33:00.503Z,1.82
2018-12-30T02:35:31.897Z,1.72
2018-12-30T02:38:04.990Z,1.92
2018-12-30T02:40:39.253Z,1.83
2018-12-30T02:43:12.577Z,1.83
2018-12-30T02:45:45.915Z,1.99
2018-12-30T02:48:18.027Z,1.88
2018-12-30T02:50:49.929Z,1.86
2018-12-30T02:53:23.853Z,1.87
2018-12-30T02:55:56.919Z,1.83
2018-12-30T02:58:29.919Z,1.88
2018-12-30T03:01:02.136Z,1.87
2018-12-30T03:03:34.969Z,2.02
2018-12-30T03:06:08.989Z,1.99
2018-12-30T03:08:44.940Z,1.99
2018-12-30T03:11:17.904Z,2.00
2018-12-30T03:13:50.099Z,2.02
2018-12-30T03:16:24.068Z,1.97
2018-12-30T03:18:57.761Z,2.01
2018-12-30T03:21:31.214Z,2.13
2018-12-30T03:24:06.890Z,2.09
2018-12-30T03:26:41.142Z,2.09
2018-12-30T03:29:15.034Z,2.20
2018-12-30T03:31:46.324Z,2.14
2018-12-30T03:34:17.992Z,2.26
2018-12-30T03:36:51.982Z,2.18
2018-12-30T03:39:24.068Z,2.15
2018-12-30T03:41:57.304Z,2.16
2018-12-30T03:44:30.204Z,2.29
2018-12-30T03:47:02.211Z,2.26
2018-12-30T03:49:34.183Z,2.26
2018-12-30T03:52:08.609Z,2.23
2018-12-30T03:54:40.142Z,2.26
2018-12-30T03:57:13.858Z,2.31
2018-12-30T03:59:46.266Z,2.28
2018-12-30T04:02:17.885Z,2.22
2018-12-30T04:04:50.181Z,2.31
2018-12-30T04:07:25.711Z,2.27
2018-12-30T04:09:57.355Z,2.31
2018-12-30T04:12:29.327Z,2.27
2018-12-30T04:15:03.456Z,2.23
2018-12-30T04:17:36.532Z,2.20
2018-12-30T04:20:10.437Z,2.20
2018-12-30T04:22:42.384Z,2.20
2018-12-30T04:25:14.548Z,2.20
2018-12-30T04:27:45.966Z,2.31
2018-12-30T04:30:18.169Z,2.18
2018-12-30T04:32:50.267Z,2.16
2018-12-30T04:35:24.406Z,2.11
2018-12-30T04:37:57.439Z,2.09
2018-12-30T04:40:31.895Z,1.98
2018-12-30T04:43:04.503Z,2.02
2018-12-30T04:45:38.576Z,2.02
2018-12-30T04:48:11.575Z,1.98
2018-12-30T04:50:47.142Z,2.12
2018-12-30T04:53:18.533Z,2.07
2018-12-30T04:55:51.457Z,2.03
2018-12-30T04:58:23.612Z,2.01
2018-12-30T05:00:56.392Z,2.11
2018-12-30T05:03:32.576Z,2.13
2018-12-30T05:06:04.460Z,2.10
2018-12-30T05:08:37.582Z,2.13
2018-12-30T05:11:12.602Z,2.17
2018-12-30T05:13:45.799Z,2.19
2018-12-30T05:16:18.278Z,2.19
2018-12-30T05:18:50.174Z,2.34
2018-12-30T05:21:21.772Z,2.38
2018-12-30T05:23:54.775Z,2.28
2018-12-30T05:26:29.221Z,2.26
2018-12-30T05:29:01.605Z,2.33
2018-12-30T05:31:33.067Z,2.35
2018-12-30T05:34:06.590Z,2.37
2018-12-30T05:36:40.640Z,2.42
2018-12-30T05:39:16.187Z,2.42
2018-12-30T05:41:48.680Z,2.47
2018-12-30T05:44:21.761Z,2.40
2018-12-30T05:46:55.659Z,2.48
2018-12-30T05:49:28.590Z,2.53
2018-12-30T05:52:02.702Z,2.53
2018-12-30T05:54:35.849Z,2.53
2018-12-30T05:57:09.832Z,2.56
2018-12-30T05:59:43.578Z,2.51
2018-12-30T06:02:16.683Z,2.56
2018-12-30T06:04:50.819Z,2.53
2018-12-30T06:07:26.656Z,2.51
2018-12-30T06:10:00.163Z,2.48
2018-12-30T06:12:31.704Z,2.54
2018-12-30T06:15:06.594Z,2.59
2018-12-30T06:17:40.038Z,2.55
2018-12-30T06:20:12.905Z,2.66
2018-12-30T06:22:49.690Z,2.63
2018-12-30T06:25:23.914Z,2.59
2018-12-30T06:27:57.090Z,2.57
2018-12-30T06:30:30.347Z,2.57
2018-12-30T06:33:01.900Z,2.61
2018-12-30T06:35:35.873Z,2.66
2018-12-30T06:38:07.161Z,2.68
2018-12-30T06:40:40.866Z,2.72
2018-12-30T06:43:14.437Z,2.69
2018-12-30T06:45:47.956Z,2.66
2018-12-30T06:48:21.233Z,2.67
2018-12-30T06:50:55.096Z,2.68
2018-12-30T06:53:29.337Z,2.71
2018-12-30T06:56:02.730Z,2.91
2018-12-30T06:58:36.755Z,2.82
2018-12-30T07:01:10.157Z,2.85
2018-12-30T07:03:44.058Z,2.87
2018-12-30T07:06:17.035Z,2.94
2018-12-30T07:08:49.992Z,2.94
2018-12-30T07:11:21.956Z,2.91
2018-12-30T07:13:55.055Z,2.98
2018-12-30T07:16:28.110Z,3.01
2018-12-30T07:19:05.000Z,3.01
2018-12-30T07:21:37.151Z,3.04
2018-12-30T07:24:08.504Z,3.04
2018-12-30T07:26:40.372Z,3.04
2018-12-30T07:29:13.077Z,3.02
2018-12-30T07:31:45.196Z,2.25
2018-12-30T07:34:18.422Z,3.06
2018-12-30T07:36:50.202Z,3.10
2018-12-30T07:39:23.835Z,3.13
2018-12-30T07:41:55.150Z,3.19
2018-12-30T07:44:29.463Z,3.26
2018-12-30T07:47:02.880Z,3.28
2018-12-30T07:49:35.437Z,3.26
2018-12-30T07:52:07.442Z,3.29
2018-12-30T07:54:39.164Z,3.31
2018-12-30T07:57:13.644Z,3.28
2018-12-30T07:59:45.151Z,3.26
2018-12-30T08:02:17.339Z,3.39
2018-12-30T08:04:49.380Z,3.41
2018-12-30T08:07:21.367Z,3.51
2018-12-30T08:09:55.788Z,3.53
2018-12-30T08:12:27.349Z,3.52
2018-12-30T08:14:59.255Z,3.51
2018-12-30T08:17:33.291Z,3.53
2018-12-30T08:20:05.239Z,3.55
2018-12-30T08:22:38.587Z,3.55
2018-12-30T08:25:12.263Z,3.55
2018-12-30T08:27:45.939Z,3.66
2018-12-30T08:30:18.378Z,3.63
2018-12-30T08:32:50.435Z,3.71
2018-12-30T08:35:24.195Z,3.61
2018-12-30T08:37:57.541Z,3.66
2018-12-30T08:40:32.212Z,3.72
2018-12-30T08:43:06.998Z,3.80
2018-12-30T08:45:38.660Z,3.71
2018-12-30T08:48:12.612Z,3.70
2018-12-30T08:50:43.957Z,3.83
2018-12-30T08:53:17.490Z,3.77
2018-12-30T08:55:50.458Z,3.72
2018-12-30T08:58:25.081Z,3.69
2018-12-30T09:00:58.110Z,3.91
2018-12-30T09:03:30.760Z,3.78
2018-12-30T09:06:02.162Z,3.77
2018-12-30T09:08:35.631Z,3.68
2018-12-30T09:11:09.958Z,3.71
2018-12-30T09:13:45.425Z,3.65
2018-12-30T09:16:18.522Z,3.72
2018-12-30T09:18:50.280Z,3.63
2018-12-30T09:21:23.748Z,3.58
2018-12-30T09:23:57.577Z,3.77
2018-12-30T09:26:32.004Z,3.73
2018-12-30T09:29:04.880Z,3.74
2018-12-30T09:34:35.337Z,3.79
2018-12-30T09:37:10.270Z,3.66
2018-12-30T09:39:43.953Z,3.71
2018-12-30T09:42:17.952Z,3.66
2018-12-30T09:44:51.992Z,3.72
2018-12-30T09:47:24.814Z,3.71
2018-12-30T09:49:58.831Z,3.73
2018-12-30T09:52:32.795Z,3.67
2018-12-30T09:55:05.829Z,3.61
2018-12-30T09:57:41.385Z,3.73
2018-12-30T10:00:13.872Z,3.62
2018-12-30T10:02:49.217Z,3.63
2018-12-30T10:05:21.816Z,3.63
2018-12-30T10:07:53.829Z,3.67
2018-12-30T10:10:27.879Z,3.69
2018-12-30T10:13:02.035Z,3.79
2018-12-30T10:15:35.232Z,3.85
2018-12-30T10:18:07.872Z,3.76
2018-12-30T10:20:43.492Z,3.79
2018-12-30T10:23:15.979Z,3.83
2018-12-30T10:25:49.443Z,3.86
2018-12-30T10:28:21.925Z,3.89
2018-12-30T10:30:53.398Z,3.91
2018-12-30T10:33:27.119Z,3.95
2018-12-30T10:36:04.766Z,4.04
2018-12-30T10:38:36.936Z,3.96
2018-12-30T10:41:16.003Z,4.03
2018-12-30T10:43:50.026Z,4.18
2018-12-30T10:46:22.177Z,4.08
2018-12-30T10:48:55.069Z,4.06
2018-12-30T10:51:28.335Z,4.10
2018-12-30T10:54:00.742Z,4.11
2018-12-30T10:56:33.006Z,4.04
2018-12-30T10:59:10.668Z,3.97
2018-12-30T11:01:44.560Z,4.00
2018-12-30T11:04:18.741Z,4.06
2018-12-30T11:06:52.393Z,4.18
2018-12-30T11:09:25.218Z,4.27
2018-12-30T11:11:59.249Z,4.21
2018-12-30T11:14:32.070Z,4.24
2018-12-30T11:17:06.117Z,4.28
2018-12-30T11:19:39.194Z,4.21
2018-12-30T11:22:13.067Z,4.23
2018-12-30T11:24:46.513Z,4.37
2018-12-30T11:27:18.733Z,4.36
2018-12-30T11:29:52.154Z,4.42
2018-12-30T11:32:24.985Z,4.44
2018-12-30T11:34:59.922Z,4.42
2018-12-30T11:37:32.387Z,4.52
2018-12-30T11:40:07.078Z,4.60
2018-12-30T11:42:40.680Z,4.63
2018-12-30T11:45:13.408Z,4.58
2018-12-30T11:47:48.961Z,4.67
2018-12-30T11:50:22.406Z,4.58
2018-12-30T11:52:54.339Z,4.58
2018-12-30T11:55:28.436Z,4.60
2018-12-30T11:58:01.401Z,4.64
2018-12-30T12:00:32.728Z,4.68
2018-12-30T12:03:06.789Z,4.90
2018-12-30T12:05:40.383Z,4.76
2018-12-30T12:08:28.417Z,4.89
2018-12-30T12:11:06.952Z,4.78
2018-12-30T12:13:40.548Z,4.76
2018-12-30T12:16:13.536Z,5.05
2018-12-30T12:18:44.996Z,4.93
2018-12-30T12:21:17.407Z,4.80
2018-12-30T12:23:51.512Z,4.78
2018-12-30T12:26:23.918Z,4.83
2018-12-30T12:28:55.553Z,4.87
2018-12-30T12:31:29.575Z,4.86
2018-12-30T12:34:01.763Z,5.11
2018-12-30T12:36:33.676Z,5.03
2018-12-30T12:39:08.650Z,5.02
2018-12-30T12:41:40.572Z,4.89
2018-12-30T12:44:14.465Z,4.90
2018-12-30T12:46:49.103Z,4.80
2018-12-30T12:49:24.870Z,4.83
2018-12-30T12:51:58.579Z,4.93
2018-12-30T12:54:32.312Z,4.98
2018-12-30T12:57:06.096Z,4.89
2018-12-30T12:59:39.967Z,4.95
2018-12-30T13:02:14.778Z,4.90
2018-12-30T13:04:47.773Z,4.95
2018-12-30T13:07:19.247Z,5.09
2018-12-30T13:09:51.809Z,5.10
2018-12-30T13:12:23.103Z,5.05
2018-12-30T13:14:56.723Z,5.04
2018-12-30T13:17:34.359Z,5.01
2018-12-30T13:20:07.722Z,5.01
2018-12-30T13:22:44.051Z,5.06
2018-12-30T13:25:20.613Z,5.15
2018-12-30T13:27:56.550Z,5.28
2018-12-30T13:30:29.870Z,5.23
2018-12-30T13:33:01.722Z,5.31
2018-12-30T13:35:44.090Z,5.27
2018-12-30T13:38:17.703Z,5.28
2018-12-30T13:40:52.943Z,5.29
2018-12-30T13:43:26.683Z,5.39
2018-12-30T13:45:58.787Z,5.35
2018-12-30T13:48:32.262Z,6.47
2018-12-30T13:51:08.297Z,6.30
2018-12-30T13:53:39.844Z,5.77
2018-12-30T13:56:16.147Z,5.77
2018-12-30T13:58:50.929Z,5.70
2018-12-30T14:01:24.136Z,5.69
2018-12-30T14:03:57.857Z,4.99
2018-12-30T14:06:31.812Z,5.61
2018-12-30T14:09:07.999Z,5.68
2018-12-30T14:11:40.027Z,5.59
2018-12-30T14:14:13.102Z,5.56
2018-12-30T14:16:48.252Z,5.74
2018-12-30T14:19:19.599Z,5.71
2018-12-30T14:21:51.864Z,5.65
2018-12-30T14:24:31.372Z,5.65
2018-12-30T14:27:06.671Z,5.58
2018-12-30T14:29:40.102Z,5.47
2018-12-30T14:32:13.279Z,5.55
2018-12-30T14:34:45.565Z,5.73
2018-12-30T14:37:18.854Z,5.75
2018-12-30T14:39:53.176Z,5.78
2018-12-30T14:42:25.095Z,5.72
2018-12-30T14:44:57.048Z,5.73
2018-12-30T14:47:31.122Z,5.74
2018-12-30T14:50:04.218Z,5.66
2018-12-30T14:52:38.010Z,5.79
2018-12-30T14:55:12.951Z,5.80
2018-12-30T14:57:45.180Z,5.33
2018-12-30T15:00:19.084Z,5.64
2018-12-30T15:02:54.625Z,5.60
2018-12-30T15:05:27.126Z,5.58
2018-12-30T15:08:00.081Z,5.70
2018-12-30T15:10:31.735Z,5.65
2018-12-30T15:13:06.961Z,5.63
2018-12-30T15:15:39.177Z,5.55
2018-12-30T15:18:14.603Z,5.51
2018-12-30T15:20:47.275Z,5.55
2018-12-30T15:23:18.970Z,5.59
2018-12-30T15:25:54.370Z,5.54
2018-12-30T15:28:28.312Z,5.47
2018-12-30T15:31:01.165Z,5.48
2018-12-30T15:33:33.678Z,5.64
2018-12-30T15:36:05.937Z,5.64
2018-12-30T15:38:39.181Z,5.57
2018-12-30T15:41:12.254Z,5.50
2018-12-30T15:43:46.368Z,5.51
2018-12-30T15:46:18.866Z,5.70
2018-12-30T15:48:50.966Z,5.54
2018-12-30T15:51:24.401Z,5.58
2018-12-30T15:53:58.470Z,5.60
2018-12-30T15:56:31.339Z,5.50
2018-12-30T15:59:07.770Z,5.68
2018-12-30T16:01:39.298Z,5.64
2018-12-30T16:04:16.100Z,5.57
2018-12-30T16:06:51.289Z,5.47
2018-12-30T16:09:28.151Z,5.47
2018-12-30T16:12:00.442Z,5.64
2018-12-30T16:14:32.615Z,5.67
2018-12-30T16:17:04.626Z,5.72
2018-12-30T16:19:38.651Z,5.57
2018-12-30T16:22:12.602Z,5.57
2018-12-30T16:24:46.425Z,5.63
2018-12-30T16:27:18.948Z,5.60
2018-12-30T16:29:51.698Z,5.71
2018-12-30T16:32:25.595Z,5.69
2018-12-30T16:34:58.011Z,5.54
2018-12-30T16:37:30.971Z,5.57
2018-12-30T16:40:04.851Z,5.54
2018-12-30T16:42:38.863Z,5.53
2018-12-30T16:45:12.619Z,5.45
2018-12-30T16:47:48.169Z,5.58
2018-12-30T16:50:19.573Z,5.58
2018-12-30T16:52:52.802Z,5.54
2018-12-30T16:55:24.153Z,5.63
2018-12-30T16:57:57.774Z,5.73
2018-12-30T17:00:30.573Z,5.58
2018-12-30T17:03:02.237Z,5.69
2018-12-30T17:05:36.423Z,5.53
2018-12-30T17:08:09.221Z,5.55
2018-12-30T17:10:41.318Z,5.49
2018-12-30T17:13:13.579Z,5.45
2018-12-30T17:15:46.854Z,5.42
2018-12-30T17:18:19.118Z,5.45
2018-12-30T17:20:53.641Z,5.54
2018-12-30T17:23:26.570Z,5.60
2018-12-30T17:26:00.002Z,5.57
2018-12-30T17:28:31.701Z,5.60
2018-12-30T17:31:12.175Z,5.56
2018-12-30T17:33:43.849Z,5.62
2018-12-30T17:36:17.239Z,5.53
2018-12-30T17:38:51.660Z,5.56
2018-12-30T17:41:24.033Z,5.64
2018-12-30T17:43:58.071Z,5.63
2018-12-30T17:46:29.769Z,5.65
2018-12-30T17:49:01.890Z,5.57
2018-12-30T17:51:36.027Z,5.61
2018-12-30T17:54:15.124Z,5.59
2018-12-30T17:56:42.864Z,5.68
2018-12-30T17:59:17.438Z,5.66
2018-12-30T18:01:49.997Z,5.65
2018-12-30T18:04:25.174Z,5.62
2018-12-30T18:06:57.145Z,5.64
2018-12-30T18:09:31.070Z,5.65
2018-12-30T18:12:04.225Z,5.57
2018-12-30T18:14:38.038Z,5.57
2018-12-30T18:17:10.131Z,5.55
2018-12-30T18:19:42.098Z,5.49
2018-12-30T18:22:16.029Z,5.58
2018-12-30T18:24:47.376Z,5.50
2018-12-30T18:27:19.733Z,5.51
2018-12-30T18:29:52.104Z,5.54
2018-12-30T18:32:29.785Z,5.43
2018-12-30T18:35:02.282Z,5.37
2018-12-30T18:37:35.061Z,5.43
2018-12-30T18:40:07.603Z,5.39
2018-12-30T18:42:41.075Z,5.55
2018-12-30T18:45:13.300Z,5.54
2018-12-30T18:47:45.051Z,5.61
2018-12-30T18:50:18.009Z,5.54
2018-12-30T18:52:49.418Z,5.56
2018-12-30T18:55:22.031Z,5.65
2018-12-30T18:57:55.567Z,5.71
2018-12-30T19:00:27.337Z,5.71
2018-12-30T19:03:01.692Z,5.66
2018-12-30T19:05:34.395Z,5.75
2018-12-30T19:14:44.128Z,5.73
2018-12-30T19:17:16.436Z,5.69
2018-12-30T19:19:50.483Z,5.74
2018-12-30T19:22:22.386Z,5.68
2018-12-30T19:24:55.193Z,5.75
2018-12-30T19:27:30.814Z,5.81
2018-12-30T19:30:08.501Z,5.76
2018-12-30T19:32:50.983Z,5.80
2018-12-30T19:35:26.940Z,5.84
2018-12-30T19:38:09.255Z,5.81
2018-12-30T19:40:59.113Z,5.81
2018-12-30T19:43:33.577Z,5.83
2018-12-30T19:46:07.308Z,5.73
2018-12-30T19:48:43.377Z,5.75
2018-12-30T19:51:21.102Z,5.80
2018-12-30T19:54:01.723Z,5.79
2018-12-30T19:56:36.614Z,5.79
2018-12-30T19:59:13.390Z,5.73
2018-12-30T20:01:47.601Z,5.60
2018-12-30T20:04:19.603Z,5.53
2018-12-30T20:06:51.824Z,5.53
2018-12-30T20:09:26.467Z,5.52
2018-12-30T20:11:58.428Z,5.50
2018-12-30T20:14:31.772Z,5.41
2018-12-30T20:17:04.480Z,5.30
2018-12-30T20:19:40.210Z,5.32
2018-12-30T20:22:13.732Z,5.27
2018-12-30T20:24:46.633Z,5.27
2018-12-30T20:27:19.334Z,5.29
2018-12-30T20:29:51.591Z,5.18
2018-12-30T20:32:26.681Z,5.17
2018-12-30T20:34:58.665Z,5.18
2018-12-30T20:37:35.366Z,5.12
2018-12-30T20:40:07.766Z,5.18
2018-12-30T20:42:40.798Z,5.22
2018-12-30T20:45:16.543Z,5.13
2018-12-30T20:47:48.553Z,5.20
2018-12-30T20:50:23.338Z,5.17
2018-12-30T20:52:55.634Z,5.17
2018-12-30T20:55:30.702Z,5.10
2018-12-30T20:58:03.881Z,5.19
2018-12-30T21:00:38.896Z,5.19
2018-12-30T21:03:15.372Z,5.20
2018-12-30T21:05:53.193Z,5.24
2018-12-30T21:08:27.516Z,5.30
2018-12-30T21:10:59.673Z,5.28
2018-12-30T21:13:31.852Z,5.29
2018-12-30T21:16:04.377Z,5.29
2018-12-30T21:18:40.184Z,5.41
2018-12-30T21:21:15.242Z,5.44
2018-12-30T21:23:48.745Z,5.41
2018-12-30T21:26:21.448Z,5.38
2018-12-30T21:28:59.926Z,5.28
2018-12-30T21:31:28.110Z,5.38
2018-12-30T21:34:03.093Z,5.41
2018-12-30T21:36:44.747Z,5.41
2018-12-30T21:39:16.774Z,5.37
2018-12-30T21:41:52.603Z,5.36
2018-12-30T21:44:27.000Z,5.41
2018-12-30T21:46:59.271Z,5.48
2018-12-30T21:49:36.863Z,5.42
2018-12-30T21:52:08.891Z,5.41
2018-12-30T21:54:43.301Z,5.40
2018-12-30T21:57:16.705Z,5.41
2018-12-30T21:59:50.081Z,5.51
2018-12-30T22:02:24.845Z,4.25
2018-12-30T22:04:56.834Z,5.39
2018-12-30T22:07:29.863Z,5.39
2018-12-30T22:10:03.338Z,5.38
2018-12-30T22:12:35.103Z,5.44
2018-12-30T22:15:07.606Z,5.37
2018-12-30T22:17:40.071Z,5.40
2018-12-30T22:20:19.143Z,5.41
2018-12-30T22:22:53.000Z,5.31
2018-12-30T22:25:29.688Z,5.28
2018-12-30T22:28:02.135Z,5.33
2018-12-30T22:30:36.111Z,5.22
2018-12-30T22:33:08.129Z,5.18
2018-12-30T22:35:43.370Z,5.25
2018-12-30T22:38:16.164Z,5.39
2018-12-30T22:40:49.428Z,5.35
2018-12-30T22:43:23.119Z,5.40
2018-12-30T22:45:58.370Z,5.44
2018-12-30T22:48:29.999Z,5.22
2018-12-30T22:51:01.663Z,5.29
2018-12-30T22:53:37.895Z,5.29
2018-12-30T22:56:16.552Z,5.40
2018-12-30T22:58:49.660Z,5.35
2018-12-30T23:01:27.017Z,5.35
2018-12-30T23:04:01.241Z,5.47
2018-12-30T23:06:33.205Z,5.41
2018-12-30T23:09:06.455Z,5.35
2018-12-30T23:11:40.465Z,5.30
2018-12-30T23:14:13.210Z,5.44
2018-12-30T23:16:47.237Z,5.44
2018-12-30T23:19:21.814Z,5.51
2018-12-30T23:21:56.369Z,5.53
2018-12-30T23:24:28.660Z,5.47
2018-12-30T23:27:05.446Z,5.41
2018-12-30T23:29:39.965Z,5.39
2018-12-30T23:32:14.413Z,5.36
2018-12-30T23:34:45.808Z,5.38
2018-12-30T23:37:17.329Z,5.29
2018-12-30T23:39:54.197Z,5.29
2018-12-30T23:42:28.509Z,5.35
2018-12-30T23:45:01.482Z,5.34
2018-12-30T23:47:38.092Z,5.32
2018-12-30T23:50:17.429Z,5.38
2018-12-30T23:52:49.536Z,5.44
2018-12-30T23:55:25.658Z,5.39
2018-12-30T23:58:01.446Z,5.42
